sensor_id;sensor_type;location;lat;lon;timestamp;P1;durP1;ratioP1;P2;durP2;ratioP2
20758;SDS011;10539;53.686;9.158;2022-10-13T00:01:23;8.50;;;4.70;;
20758;SDS011;10539;53.686;9.158;2022-10-13T00:03:49;14.37;;;4.77;;
20758;SDS011;10539;53.686;9.158;2022-10-13T00:06:16;9.30;;;4.60;;
20758;SDS011;10539;53.686;9.158;2022-10-13T00:08:43;13.13;;;5.70;;
20758;SDS011;10539;53.686;9.158;2022-10-13T00:11:11;13.47;;;4.57;;
20758;SDS011;10539;53.686;9.158;2022-10-13T00:13:39;9.03;;;4.47;;
20758;SDS011;10539;53.686;9.158;2022-10-13T00:16:05;15.97;;;4.87;;
20758;SDS011;10539;53.686;9.158;2022-10-13T00:18:32;14.37;;;5.30;;
20758;SDS011;10539;53.686;9.158;2022-10-13T00:20:57;12.67;;;4.73;;
20758;SDS011;10539;53.686;9.158;2022-10-13T00:23:23;15.10;;;5.10;;
20758;SDS011;10539;53.686;9.158;2022-10-13T00:25:49;11.47;;;5.80;;
20758;SDS011;10539;53.686;9.158;2022-10-13T00:28:16;13.23;;;5.30;;
20758;SDS011;10539;53.686;9.158;2022-10-13T00:30:43;15.23;;;4.97;;
20758;SDS011;10539;53.686;9.158;2022-10-13T00:33:10;11.63;;;4.90;;
20758;SDS011;10539;53.686;9.158;2022-10-13T00:35:40;14.60;;;5.10;;
20758;SDS011;10539;53.686;9.158;2022-10-13T00:38:08;9.63;;;5.23;;
20758;SDS011;10539;53.686;9.158;2022-10-13T00:40:41;18.57;;;5.10;;
20758;SDS011;10539;53.686;9.158;2022-10-13T00:43:20;10.30;;;5.20;;
20758;SDS011;10539;53.686;9.158;2022-10-13T00:45:48;15.77;;;5.17;;
20758;SDS011;10539;53.686;9.158;2022-10-13T00:48:16;10.20;;;5.20;;
20758;SDS011;10539;53.686;9.158;2022-10-13T00:50:44;9.77;;;5.30;;
20758;SDS011;10539;53.686;9.158;2022-10-13T00:53:11;11.97;;;4.80;;
20758;SDS011;10539;53.686;9.158;2022-10-13T00:55:40;15.20;;;5.77;;
20758;SDS011;10539;53.686;9.158;2022-10-13T00:58:08;13.17;;;5.93;;
20758;SDS011;10539;53.686;9.158;2022-10-13T01:00:36;16.80;;;5.53;;
20758;SDS011;10539;53.686;9.158;2022-10-13T01:03:02;14.87;;;6.10;;
20758;SDS011;10539;53.686;9.158;2022-10-13T01:05:29;12.63;;;5.57;;
20758;SDS011;10539;53.686;9.158;2022-10-13T01:07:55;10.70;;;5.77;;
20758;SDS011;10539;53.686;9.158;2022-10-13T01:10:28;15.13;;;5.90;;
20758;SDS011;10539;53.686;9.158;2022-10-13T01:13:16;13.53;;;5.50;;
20758;SDS011;10539;53.686;9.158;2022-10-13T01:18:51;15.07;;;6.00;;
20758;SDS011;10539;53.686;9.158;2022-10-13T01:29:31;14.63;;;5.57;;
20758;SDS011;10539;53.686;9.158;2022-10-13T01:37:34;13.87;;;5.83;;
20758;SDS011;10539;53.686;9.158;2022-10-13T01:40:29;10.47;;;5.67;;
20758;SDS011;10539;53.686;9.158;2022-10-13T01:43:45;10.93;;;5.67;;
20758;SDS011;10539;53.686;9.158;2022-10-13T01:46:06;9.63;;;5.73;;
20758;SDS011;10539;53.686;9.158;2022-10-13T01:48:47;15.23;;;6.20;;
20758;SDS011;10539;53.686;9.158;2022-10-13T01:51:16;18.10;;;6.10;;
20758;SDS011;10539;53.686;9.158;2022-10-13T01:53:45;14.00;;;5.40;;
20758;SDS011;10539;53.686;9.158;2022-10-13T01:56:12;16.13;;;5.57;;
20758;SDS011;10539;53.686;9.158;2022-10-13T01:58:38;15.83;;;6.43;;
20758;SDS011;10539;53.686;9.158;2022-10-13T02:04:09;16.23;;;6.37;;
20758;SDS011;10539;53.686;9.158;2022-10-13T02:09:56;11.40;;;5.67;;
20758;SDS011;10539;53.686;9.158;2022-10-13T02:13:17;10.67;;;5.67;;
20758;SDS011;10539;53.686;9.158;2022-10-13T02:15:42;14.20;;;6.07;;
20758;SDS011;10539;53.686;9.158;2022-10-13T02:18:12;16.40;;;6.23;;
20758;SDS011;10539;53.686;9.158;2022-10-13T02:20:40;13.77;;;5.40;;
20758;SDS011;10539;53.686;9.158;2022-10-13T02:23:08;13.23;;;5.87;;
20758;SDS011;10539;53.686;9.158;2022-10-13T02:25:36;10.63;;;5.63;;
20758;SDS011;10539;53.686;9.158;2022-10-13T02:28:03;11.73;;;6.00;;
20758;SDS011;10539;53.686;9.158;2022-10-13T02:30:30;13.03;;;6.40;;
20758;SDS011;10539;53.686;9.158;2022-10-13T02:32:57;9.93;;;6.13;;
20758;SDS011;10539;53.686;9.158;2022-10-13T02:35:26;14.03;;;6.63;;
20758;SDS011;10539;53.686;9.158;2022-10-13T02:37:54;14.47;;;6.33;;
20758;SDS011;10539;53.686;9.158;2022-10-13T02:40:20;18.57;;;7.30;;
20758;SDS011;10539;53.686;9.158;2022-10-13T02:42:45;17.90;;;6.60;;
20758;SDS011;10539;53.686;9.158;2022-10-13T02:45:11;12.20;;;6.63;;
20758;SDS011;10539;53.686;9.158;2022-10-13T02:47:36;13.37;;;6.53;;
20758;SDS011;10539;53.686;9.158;2022-10-13T02:50:03;17.30;;;7.00;;
20758;SDS011;10539;53.686;9.158;2022-10-13T02:52:29;13.50;;;6.40;;
20758;SDS011;10539;53.686;9.158;2022-10-13T02:54:55;16.80;;;7.10;;
20758;SDS011;10539;53.686;9.158;2022-10-13T02:57:21;17.77;;;7.93;;
20758;SDS011;10539;53.686;9.158;2022-10-13T02:59:46;13.73;;;6.63;;
20758;SDS011;10539;53.686;9.158;2022-10-13T03:02:12;17.17;;;6.60;;
20758;SDS011;10539;53.686;9.158;2022-10-13T03:04:38;19.83;;;6.77;;
20758;SDS011;10539;53.686;9.158;2022-10-13T03:07:04;15.93;;;6.80;;
20758;SDS011;10539;53.686;9.158;2022-10-13T03:09:30;10.80;;;6.37;;
20758;SDS011;10539;53.686;9.158;2022-10-13T03:11:56;16.03;;;6.87;;
20758;SDS011;10539;53.686;9.158;2022-10-13T03:14:22;14.87;;;6.73;;
20758;SDS011;10539;53.686;9.158;2022-10-13T03:16:47;18.37;;;7.40;;
20758;SDS011;10539;53.686;9.158;2022-10-13T03:19:13;18.40;;;7.70;;
20758;SDS011;10539;53.686;9.158;2022-10-13T03:21:39;18.87;;;7.30;;
20758;SDS011;10539;53.686;9.158;2022-10-13T03:24:05;18.23;;;6.93;;
20758;SDS011;10539;53.686;9.158;2022-10-13T03:26:31;14.47;;;7.17;;
20758;SDS011;10539;53.686;9.158;2022-10-13T03:28:57;15.67;;;7.10;;
20758;SDS011;10539;53.686;9.158;2022-10-13T03:31:23;13.50;;;6.97;;
20758;SDS011;10539;53.686;9.158;2022-10-13T03:33:49;17.83;;;7.53;;
20758;SDS011;10539;53.686;9.158;2022-10-13T03:36:15;16.60;;;7.37;;
20758;SDS011;10539;53.686;9.158;2022-10-13T03:38:41;16.43;;;7.40;;
20758;SDS011;10539;53.686;9.158;2022-10-13T03:41:08;13.80;;;7.60;;
20758;SDS011;10539;53.686;9.158;2022-10-13T03:43:37;13.43;;;7.33;;
20758;SDS011;10539;53.686;9.158;2022-10-13T03:46:03;13.17;;;6.83;;
20758;SDS011;10539;53.686;9.158;2022-10-13T03:48:31;16.67;;;7.13;;
20758;SDS011;10539;53.686;9.158;2022-10-13T03:50:58;15.93;;;6.90;;
20758;SDS011;10539;53.686;9.158;2022-10-13T03:53:24;15.80;;;6.90;;
20758;SDS011;10539;53.686;9.158;2022-10-13T03:55:51;12.87;;;7.13;;
20758;SDS011;10539;53.686;9.158;2022-10-13T03:58:19;13.90;;;7.47;;
20758;SDS011;10539;53.686;9.158;2022-10-13T04:00:45;12.20;;;7.40;;
20758;SDS011;10539;53.686;9.158;2022-10-13T04:03:11;14.87;;;7.23;;
20758;SDS011;10539;53.686;9.158;2022-10-13T04:05:37;17.53;;;7.20;;
20758;SDS011;10539;53.686;9.158;2022-10-13T04:08:03;16.13;;;6.97;;
20758;SDS011;10539;53.686;9.158;2022-10-13T04:10:29;13.37;;;7.40;;
20758;SDS011;10539;53.686;9.158;2022-10-13T04:12:54;15.13;;;8.00;;
20758;SDS011;10539;53.686;9.158;2022-10-13T04:15:20;19.20;;;7.33;;
20758;SDS011;10539;53.686;9.158;2022-10-13T04:17:46;14.27;;;8.53;;
20758;SDS011;10539;53.686;9.158;2022-10-13T04:20:12;16.77;;;7.97;;
20758;SDS011;10539;53.686;9.158;2022-10-13T04:22:37;17.97;;;7.40;;
20758;SDS011;10539;53.686;9.158;2022-10-13T04:25:03;20.43;;;8.50;;
20758;SDS011;10539;53.686;9.158;2022-10-13T04:27:30;16.10;;;7.43;;
20758;SDS011;10539;53.686;9.158;2022-10-13T04:29:56;15.47;;;7.63;;
20758;SDS011;10539;53.686;9.158;2022-10-13T04:32:22;15.33;;;7.90;;
20758;SDS011;10539;53.686;9.158;2022-10-13T04:34:48;18.20;;;9.17;;
20758;SDS011;10539;53.686;9.158;2022-10-13T04:37:14;12.40;;;7.10;;
20758;SDS011;10539;53.686;9.158;2022-10-13T04:39:41;16.43;;;8.43;;
20758;SDS011;10539;53.686;9.158;2022-10-13T04:42:06;13.43;;;8.17;;
20758;SDS011;10539;53.686;9.158;2022-10-13T04:44:32;15.77;;;8.20;;
20758;SDS011;10539;53.686;9.158;2022-10-13T04:46:58;16.63;;;8.07;;
20758;SDS011;10539;53.686;9.158;2022-10-13T04:49:25;15.57;;;8.10;;
20758;SDS011;10539;53.686;9.158;2022-10-13T04:51:51;17.87;;;8.17;;
20758;SDS011;10539;53.686;9.158;2022-10-13T04:54:17;19.07;;;9.17;;
20758;SDS011;10539;53.686;9.158;2022-10-13T04:56:43;22.23;;;9.33;;
20758;SDS011;10539;53.686;9.158;2022-10-13T04:59:09;17.63;;;8.67;;
20758;SDS011;10539;53.686;9.158;2022-10-13T05:01:35;17.47;;;7.83;;
20758;SDS011;10539;53.686;9.158;2022-10-13T05:04:01;19.73;;;9.10;;
20758;SDS011;10539;53.686;9.158;2022-10-13T05:06:29;14.73;;;7.67;;
20758;SDS011;10539;53.686;9.158;2022-10-13T05:08:57;18.10;;;9.17;;
20758;SDS011;10539;53.686;9.158;2022-10-13T05:11:23;18.80;;;9.57;;
20758;SDS011;10539;53.686;9.158;2022-10-13T05:13:50;21.93;;;9.57;;
20758;SDS011;10539;53.686;9.158;2022-10-13T05:16:17;15.30;;;8.60;;
20758;SDS011;10539;53.686;9.158;2022-10-13T05:18:45;22.13;;;10.03;;
20758;SDS011;10539;53.686;9.158;2022-10-13T05:21:12;18.97;;;9.27;;
20758;SDS011;10539;53.686;9.158;2022-10-13T05:23:38;26.00;;;9.73;;
20758;SDS011;10539;53.686;9.158;2022-10-13T05:26:06;22.60;;;10.33;;
20758;SDS011;10539;53.686;9.158;2022-10-13T05:28:33;24.90;;;10.23;;
20758;SDS011;10539;53.686;9.158;2022-10-13T05:31:12;21.57;;;10.27;;
20758;SDS011;10539;53.686;9.158;2022-10-13T05:33:43;18.30;;;9.70;;
20758;SDS011;10539;53.686;9.158;2022-10-13T05:36:10;21.73;;;10.43;;
20758;SDS011;10539;53.686;9.158;2022-10-13T05:38:38;17.37;;;9.13;;
20758;SDS011;10539;53.686;9.158;2022-10-13T05:41:05;17.17;;;9.17;;
20758;SDS011;10539;53.686;9.158;2022-10-13T05:43:33;23.30;;;10.87;;
20758;SDS011;10539;53.686;9.158;2022-10-13T05:46:00;20.27;;;9.90;;
20758;SDS011;10539;53.686;9.158;2022-10-13T05:48:27;18.43;;;10.00;;
20758;SDS011;10539;53.686;9.158;2022-10-13T05:50:53;20.13;;;10.27;;
20758;SDS011;10539;53.686;9.158;2022-10-13T05:53:21;23.57;;;10.83;;
20758;SDS011;10539;53.686;9.158;2022-10-13T05:55:48;24.50;;;11.63;;
20758;SDS011;10539;53.686;9.158;2022-10-13T05:58:15;22.77;;;11.03;;
20758;SDS011;10539;53.686;9.158;2022-10-13T06:00:41;24.83;;;11.00;;
20758;SDS011;10539;53.686;9.158;2022-10-13T06:03:09;25.07;;;11.37;;
20758;SDS011;10539;53.686;9.158;2022-10-13T06:05:38;22.67;;;10.33;;
20758;SDS011;10539;53.686;9.158;2022-10-13T06:08:07;26.30;;;11.53;;
20758;SDS011;10539;53.686;9.158;2022-10-13T06:10:33;23.10;;;11.27;;
20758;SDS011;10539;53.686;9.158;2022-10-13T06:13:01;26.70;;;10.97;;
20758;SDS011;10539;53.686;9.158;2022-10-13T06:15:26;24.13;;;11.63;;
20758;SDS011;10539;53.686;9.158;2022-10-13T06:17:52;24.27;;;12.00;;
20758;SDS011;10539;53.686;9.158;2022-10-13T06:20:18;18.50;;;9.87;;
20758;SDS011;10539;53.686;9.158;2022-10-13T06:22:44;25.87;;;11.73;;
20758;SDS011;10539;53.686;9.158;2022-10-13T06:25:10;22.70;;;11.73;;
20758;SDS011;10539;53.686;9.158;2022-10-13T06:27:36;28.93;;;11.40;;
20758;SDS011;10539;53.686;9.158;2022-10-13T06:30:02;19.30;;;10.63;;
20758;SDS011;10539;53.686;9.158;2022-10-13T06:32:28;23.30;;;11.17;;
20758;SDS011;10539;53.686;9.158;2022-10-13T06:34:54;23.77;;;11.63;;
20758;SDS011;10539;53.686;9.158;2022-10-13T06:37:20;21.53;;;10.30;;
20758;SDS011;10539;53.686;9.158;2022-10-13T06:39:45;19.47;;;10.37;;
20758;SDS011;10539;53.686;9.158;2022-10-13T06:42:11;22.33;;;10.43;;
20758;SDS011;10539;53.686;9.158;2022-10-13T06:44:37;26.67;;;12.30;;
20758;SDS011;10539;53.686;9.158;2022-10-13T06:47:03;20.40;;;10.83;;
20758;SDS011;10539;53.686;9.158;2022-10-13T06:49:29;29.53;;;11.90;;
20758;SDS011;10539;53.686;9.158;2022-10-13T06:51:55;20.43;;;11.07;;
20758;SDS011;10539;53.686;9.158;2022-10-13T06:54:20;22.47;;;11.13;;
20758;SDS011;10539;53.686;9.158;2022-10-13T06:56:46;21.13;;;11.40;;
20758;SDS011;10539;53.686;9.158;2022-10-13T06:59:12;24.87;;;11.17;;
20758;SDS011;10539;53.686;9.158;2022-10-13T07:01:38;22.03;;;10.97;;
20758;SDS011;10539;53.686;9.158;2022-10-13T07:04:04;24.20;;;11.40;;
20758;SDS011;10539;53.686;9.158;2022-10-13T07:06:31;22.40;;;11.70;;
20758;SDS011;10539;53.686;9.158;2022-10-13T07:08:56;24.33;;;10.80;;
20758;SDS011;10539;53.686;9.158;2022-10-13T07:11:22;29.83;;;12.47;;
20758;SDS011;10539;53.686;9.158;2022-10-13T07:13:48;25.30;;;11.60;;
20758;SDS011;10539;53.686;9.158;2022-10-13T07:16:14;30.43;;;11.07;;
20758;SDS011;10539;53.686;9.158;2022-10-13T07:18:40;31.97;;;12.20;;
20758;SDS011;10539;53.686;9.158;2022-10-13T07:21:06;23.80;;;11.87;;
20758;SDS011;10539;53.686;9.158;2022-10-13T07:23:31;26.60;;;12.47;;
20758;SDS011;10539;53.686;9.158;2022-10-13T07:25:57;24.87;;;13.00;;
20758;SDS011;10539;53.686;9.158;2022-10-13T07:28:23;23.97;;;11.70;;
20758;SDS011;10539;53.686;9.158;2022-10-13T07:30:50;22.33;;;11.57;;
20758;SDS011;10539;53.686;9.158;2022-10-13T07:33:16;26.43;;;12.10;;
20758;SDS011;10539;53.686;9.158;2022-10-13T07:35:42;27.07;;;13.23;;
20758;SDS011;10539;53.686;9.158;2022-10-13T07:38:08;27.17;;;11.87;;
20758;SDS011;10539;53.686;9.158;2022-10-13T07:40:34;31.17;;;13.33;;
20758;SDS011;10539;53.686;9.158;2022-10-13T07:42:59;28.27;;;13.23;;
20758;SDS011;10539;53.686;9.158;2022-10-13T07:45:26;25.93;;;12.27;;
20758;SDS011;10539;53.686;9.158;2022-10-13T07:47:52;30.10;;;13.70;;
20758;SDS011;10539;53.686;9.158;2022-10-13T07:50:18;27.53;;;12.83;;
20758;SDS011;10539;53.686;9.158;2022-10-13T07:52:44;33.63;;;14.80;;
20758;SDS011;10539;53.686;9.158;2022-10-13T07:55:10;31.40;;;13.50;;
20758;SDS011;10539;53.686;9.158;2022-10-13T07:57:36;28.13;;;13.77;;
20758;SDS011;10539;53.686;9.158;2022-10-13T08:00:03;29.00;;;13.07;;
20758;SDS011;10539;53.686;9.158;2022-10-13T08:02:30;39.27;;;13.30;;
20758;SDS011;10539;53.686;9.158;2022-10-13T08:04:56;32.93;;;14.17;;
20758;SDS011;10539;53.686;9.158;2022-10-13T08:07:22;29.63;;;13.77;;
20758;SDS011;10539;53.686;9.158;2022-10-13T08:09:48;29.10;;;13.47;;
20758;SDS011;10539;53.686;9.158;2022-10-13T08:12:14;31.20;;;13.53;;
20758;SDS011;10539;53.686;9.158;2022-10-13T08:14:39;26.73;;;13.43;;
20758;SDS011;10539;53.686;9.158;2022-10-13T08:17:06;25.40;;;14.00;;
20758;SDS011;10539;53.686;9.158;2022-10-13T08:19:32;33.80;;;14.23;;
20758;SDS011;10539;53.686;9.158;2022-10-13T08:21:58;32.33;;;14.67;;
20758;SDS011;10539;53.686;9.158;2022-10-13T08:24:24;25.37;;;14.17;;
20758;SDS011;10539;53.686;9.158;2022-10-13T08:26:50;31.00;;;14.73;;
20758;SDS011;10539;53.686;9.158;2022-10-13T08:29:16;33.53;;;14.97;;
20758;SDS011;10539;53.686;9.158;2022-10-13T08:31:42;34.90;;;15.93;;
20758;SDS011;10539;53.686;9.158;2022-10-13T08:34:08;32.83;;;14.50;;
20758;SDS011;10539;53.686;9.158;2022-10-13T08:36:34;31.83;;;14.50;;
20758;SDS011;10539;53.686;9.158;2022-10-13T08:39:01;28.27;;;15.23;;
20758;SDS011;10539;53.686;9.158;2022-10-13T08:41:32;29.17;;;14.63;;
20758;SDS011;10539;53.686;9.158;2022-10-13T08:44:04;31.40;;;14.87;;
20758;SDS011;10539;53.686;9.158;2022-10-13T08:46:34;29.77;;;14.40;;
20758;SDS011;10539;53.686;9.158;2022-10-13T08:49:06;31.33;;;15.83;;
20758;SDS011;10539;53.686;9.158;2022-10-13T08:51:32;32.03;;;15.30;;
20758;SDS011;10539;53.686;9.158;2022-10-13T08:53:58;30.90;;;15.00;;
20758;SDS011;10539;53.686;9.158;2022-10-13T08:56:25;29.03;;;14.83;;
20758;SDS011;10539;53.686;9.158;2022-10-13T08:58:54;38.77;;;16.13;;
20758;SDS011;10539;53.686;9.158;2022-10-13T09:01:31;30.50;;;15.33;;
20758;SDS011;10539;53.686;9.158;2022-10-13T09:07:03;32.00;;;15.43;;
20758;SDS011;10539;53.686;9.158;2022-10-13T09:09:35;33.80;;;15.70;;
20758;SDS011;10539;53.686;9.158;2022-10-13T09:12:02;35.07;;;16.50;;
20758;SDS011;10539;53.686;9.158;2022-10-13T09:14:36;36.73;;;16.27;;
20758;SDS011;10539;53.686;9.158;2022-10-13T09:19:40;30.57;;;15.53;;
20758;SDS011;10539;53.686;9.158;2022-10-13T09:22:23;32.40;;;16.73;;
20758;SDS011;10539;53.686;9.158;2022-10-13T09:32:50;31.07;;;15.67;;
20758;SDS011;10539;53.686;9.158;2022-10-13T09:35:20;28.20;;;15.23;;
20758;SDS011;10539;53.686;9.158;2022-10-13T09:38:00;27.57;;;14.83;;
20758;SDS011;10539;53.686;9.158;2022-10-13T09:40:28;28.73;;;15.93;;
20758;SDS011;10539;53.686;9.158;2022-10-13T09:42:56;38.37;;;17.30;;
20758;SDS011;10539;53.686;9.158;2022-10-13T09:45:24;34.37;;;16.43;;
20758;SDS011;10539;53.686;9.158;2022-10-13T09:47:52;29.77;;;15.47;;
20758;SDS011;10539;53.686;9.158;2022-10-13T09:50:22;36.90;;;16.50;;
20758;SDS011;10539;53.686;9.158;2022-10-13T09:52:50;31.80;;;16.77;;
20758;SDS011;10539;53.686;9.158;2022-10-13T09:57:52;30.67;;;16.77;;
20758;SDS011;10539;53.686;9.158;2022-10-13T10:00:22;34.37;;;16.73;;
20758;SDS011;10539;53.686;9.158;2022-10-13T10:03:23;34.77;;;16.73;;
20758;SDS011;10539;53.686;9.158;2022-10-13T10:05:51;31.40;;;18.20;;
20758;SDS011;10539;53.686;9.158;2022-10-13T10:10:59;33.30;;;16.63;;
20758;SDS011;10539;53.686;9.158;2022-10-13T10:13:27;29.43;;;17.23;;
20758;SDS011;10539;53.686;9.158;2022-10-13T10:30:01;33.63;;;17.30;;
20758;SDS011;10539;53.686;9.158;2022-10-13T10:35:17;33.73;;;17.00;;
20758;SDS011;10539;53.686;9.158;2022-10-13T10:40:31;31.47;;;16.60;;
20758;SDS011;10539;53.686;9.158;2022-10-13T10:45:59;38.20;;;17.37;;
20758;SDS011;10539;53.686;9.158;2022-10-13T10:48:28;33.77;;;17.07;;
20758;SDS011;10539;53.686;9.158;2022-10-13T10:50:58;34.53;;;17.20;;
20758;SDS011;10539;53.686;9.158;2022-10-13T11:01:48;38.00;;;17.90;;
20758;SDS011;10539;53.686;9.158;2022-10-13T11:04:40;37.17;;;18.47;;
20758;SDS011;10539;53.686;9.158;2022-10-13T11:07:16;36.30;;;18.47;;
20758;SDS011;10539;53.686;9.158;2022-10-13T11:17:36;38.97;;;18.53;;
20758;SDS011;10539;53.686;9.158;2022-10-13T11:30:56;36.77;;;19.63;;
20758;SDS011;10539;53.686;9.158;2022-10-13T11:33:56;44.47;;;18.73;;
20758;SDS011;10539;53.686;9.158;2022-10-13T11:39:44;39.07;;;18.83;;
20758;SDS011;10539;53.686;9.158;2022-10-13T11:42:24;43.33;;;19.57;;
20758;SDS011;10539;53.686;9.158;2022-10-13T11:45:02;40.60;;;19.37;;
20758;SDS011;10539;53.686;9.158;2022-10-13T11:50:48;40.03;;;19.73;;
20758;SDS011;10539;53.686;9.158;2022-10-13T11:54:18;46.73;;;20.20;;
20758;SDS011;10539;53.686;9.158;2022-10-13T11:56:31;40.27;;;19.70;;
20758;SDS011;10539;53.686;9.158;2022-10-13T11:58:58;46.97;;;20.67;;
20758;SDS011;10539;53.686;9.158;2022-10-13T12:01:24;41.50;;;21.27;;
20758;SDS011;10539;53.686;9.158;2022-10-13T12:03:50;43.00;;;20.70;;
20758;SDS011;10539;53.686;9.158;2022-10-13T12:06:31;43.43;;;20.57;;
20758;SDS011;10539;53.686;9.158;2022-10-13T12:08:59;52.60;;;22.83;;
20758;SDS011;10539;53.686;9.158;2022-10-13T12:11:28;47.90;;;22.50;;
20758;SDS011;10539;53.686;9.158;2022-10-13T12:13:57;48.10;;;23.93;;
20758;SDS011;10539;53.686;9.158;2022-10-13T12:16:24;51.23;;;24.50;;
20758;SDS011;10539;53.686;9.158;2022-10-13T12:18:50;59.13;;;25.37;;
20758;SDS011;10539;53.686;9.158;2022-10-13T12:21:20;52.70;;;23.73;;
20758;SDS011;10539;53.686;9.158;2022-10-13T12:23:47;51.33;;;26.57;;
20758;SDS011;10539;53.686;9.158;2022-10-13T12:26:18;56.33;;;26.57;;
20758;SDS011;10539;53.686;9.158;2022-10-13T12:31:21;56.63;;;25.73;;
20758;SDS011;10539;53.686;9.158;2022-10-13T12:33:53;54.00;;;25.27;;
20758;SDS011;10539;53.686;9.158;2022-10-13T12:36:26;52.83;;;24.77;;
20758;SDS011;10539;53.686;9.158;2022-10-13T12:38:57;56.87;;;26.13;;
20758;SDS011;10539;53.686;9.158;2022-10-13T12:41:33;57.80;;;25.77;;
20758;SDS011;10539;53.686;9.158;2022-10-13T12:44:00;56.97;;;26.97;;
20758;SDS011;10539;53.686;9.158;2022-10-13T12:46:46;53.90;;;26.23;;
20758;SDS011;10539;53.686;9.158;2022-10-13T12:49:19;53.13;;;25.57;;
20758;SDS011;10539;53.686;9.158;2022-10-13T12:51:57;53.87;;;25.80;;
20758;SDS011;10539;53.686;9.158;2022-10-13T12:54:35;55.87;;;25.70;;
20758;SDS011;10539;53.686;9.158;2022-10-13T12:57:04;53.23;;;25.83;;
20758;SDS011;10539;53.686;9.158;2022-10-13T12:59:42;54.73;;;25.63;;
20758;SDS011;10539;53.686;9.158;2022-10-13T13:02:24;55.37;;;25.33;;
20758;SDS011;10539;53.686;9.158;2022-10-13T13:04:53;55.80;;;25.33;;
20758;SDS011;10539;53.686;9.158;2022-10-13T13:07:35;53.47;;;25.77;;
20758;SDS011;10539;53.686;9.158;2022-10-13T13:10:08;51.53;;;25.60;;
20758;SDS011;10539;53.686;9.158;2022-10-13T13:12:40;52.67;;;25.53;;
20758;SDS011;10539;53.686;9.158;2022-10-13T13:15:28;60.70;;;25.97;;
20758;SDS011;10539;53.686;9.158;2022-10-13T13:20:47;54.93;;;26.50;;
20758;SDS011;10539;53.686;9.158;2022-10-13T13:23:13;59.70;;;27.50;;
20758;SDS011;10539;53.686;9.158;2022-10-13T13:25:42;55.10;;;25.40;;
20758;SDS011;10539;53.686;9.158;2022-10-13T13:28:09;56.17;;;25.57;;
20758;SDS011;10539;53.686;9.158;2022-10-13T13:30:38;52.03;;;26.87;;
20758;SDS011;10539;53.686;9.158;2022-10-13T13:33:03;58.67;;;26.03;;
20758;SDS011;10539;53.686;9.158;2022-10-13T13:35:30;49.03;;;26.20;;
20758;SDS011;10539;53.686;9.158;2022-10-13T13:37:56;52.47;;;25.87;;
20758;SDS011;10539;53.686;9.158;2022-10-13T13:40:23;50.57;;;26.13;;
20758;SDS011;10539;53.686;9.158;2022-10-13T13:42:52;47.20;;;23.70;;
20758;SDS011;10539;53.686;9.158;2022-10-13T13:45:19;54.43;;;24.80;;
20758;SDS011;10539;53.686;9.158;2022-10-13T13:47:47;49.77;;;22.83;;
20758;SDS011;10539;53.686;9.158;2022-10-13T13:50:20;43.43;;;23.47;;
20758;SDS011;10539;53.686;9.158;2022-10-13T13:52:50;44.43;;;23.07;;
20758;SDS011;10539;53.686;9.158;2022-10-13T13:55:16;48.30;;;23.57;;
20758;SDS011;10539;53.686;9.158;2022-10-13T13:57:42;47.40;;;23.60;;
20758;SDS011;10539;53.686;9.158;2022-10-13T14:00:12;45.50;;;23.87;;
20758;SDS011;10539;53.686;9.158;2022-10-13T14:02:39;50.77;;;28.37;;
20758;SDS011;10539;53.686;9.158;2022-10-13T14:05:07;47.60;;;23.90;;
20758;SDS011;10539;53.686;9.158;2022-10-13T14:07:33;45.47;;;24.37;;
20758;SDS011;10539;53.686;9.158;2022-10-13T14:09:58;44.17;;;23.97;;
20758;SDS011;10539;53.686;9.158;2022-10-13T14:12:24;47.43;;;24.60;;
20758;SDS011;10539;53.686;9.158;2022-10-13T14:14:51;48.93;;;25.00;;
20758;SDS011;10539;53.686;9.158;2022-10-13T14:17:17;50.67;;;26.37;;
20758;SDS011;10539;53.686;9.158;2022-10-13T14:19:42;42.93;;;23.30;;
20758;SDS011;10539;53.686;9.158;2022-10-13T14:22:08;48.97;;;26.03;;
20758;SDS011;10539;53.686;9.158;2022-10-13T14:24:34;41.97;;;25.03;;
20758;SDS011;10539;53.686;9.158;2022-10-13T14:26:59;44.90;;;24.70;;
20758;SDS011;10539;53.686;9.158;2022-10-13T14:29:25;45.77;;;24.23;;
20758;SDS011;10539;53.686;9.158;2022-10-13T14:31:51;36.70;;;21.07;;
20758;SDS011;10539;53.686;9.158;2022-10-13T14:34:17;39.10;;;21.27;;
20758;SDS011;10539;53.686;9.158;2022-10-13T14:36:43;45.07;;;22.03;;
20758;SDS011;10539;53.686;9.158;2022-10-13T14:39:09;40.53;;;23.00;;
20758;SDS011;10539;53.686;9.158;2022-10-13T14:41:34;41.43;;;21.13;;
20758;SDS011;10539;53.686;9.158;2022-10-13T14:44:00;44.60;;;23.73;;
20758;SDS011;10539;53.686;9.158;2022-10-13T14:46:26;48.13;;;25.80;;
20758;SDS011;10539;53.686;9.158;2022-10-13T14:48:51;52.33;;;26.97;;
20758;SDS011;10539;53.686;9.158;2022-10-13T14:51:19;51.80;;;26.90;;
20758;SDS011;10539;53.686;9.158;2022-10-13T14:53:45;55.47;;;27.93;;
20758;SDS011;10539;53.686;9.158;2022-10-13T14:56:21;52.83;;;27.90;;
20758;SDS011;10539;53.686;9.158;2022-10-13T14:58:49;51.77;;;26.70;;
20758;SDS011;10539;53.686;9.158;2022-10-13T15:01:16;44.10;;;22.77;;
20758;SDS011;10539;53.686;9.158;2022-10-13T15:03:42;51.50;;;24.27;;
20758;SDS011;10539;53.686;9.158;2022-10-13T15:06:15;48.10;;;25.77;;
20758;SDS011;10539;53.686;9.158;2022-10-13T15:08:43;44.87;;;23.20;;
20758;SDS011;10539;53.686;9.158;2022-10-13T15:11:10;46.40;;;25.07;;
20758;SDS011;10539;53.686;9.158;2022-10-13T15:13:35;51.63;;;24.97;;
20758;SDS011;10539;53.686;9.158;2022-10-13T15:16:02;58.30;;;27.27;;
20758;SDS011;10539;53.686;9.158;2022-10-13T15:18:29;58.03;;;30.30;;
20758;SDS011;10539;53.686;9.158;2022-10-13T15:20:56;54.63;;;29.87;;
20758;SDS011;10539;53.686;9.158;2022-10-13T15:23:22;60.10;;;29.00;;
20758;SDS011;10539;53.686;9.158;2022-10-13T15:25:48;57.03;;;31.97;;
20758;SDS011;10539;53.686;9.158;2022-10-13T15:28:20;61.90;;;28.43;;
20758;SDS011;10539;53.686;9.158;2022-10-13T15:30:50;52.73;;;27.10;;
20758;SDS011;10539;53.686;9.158;2022-10-13T15:33:16;51.50;;;27.60;;
20758;SDS011;10539;53.686;9.158;2022-10-13T15:35:42;64.17;;;32.67;;
20758;SDS011;10539;53.686;9.158;2022-10-13T15:38:08;62.97;;;34.43;;
20758;SDS011;10539;53.686;9.158;2022-10-13T15:40:37;79.80;;;43.17;;
20758;SDS011;10539;53.686;9.158;2022-10-13T15:43:04;83.47;;;41.07;;
20758;SDS011;10539;53.686;9.158;2022-10-13T15:45:30;65.47;;;33.30;;
20758;SDS011;10539;53.686;9.158;2022-10-13T15:47:56;62.63;;;32.50;;
20758;SDS011;10539;53.686;9.158;2022-10-13T15:50:22;58.07;;;30.50;;
20758;SDS011;10539;53.686;9.158;2022-10-13T15:52:49;77.10;;;39.67;;
20758;SDS011;10539;53.686;9.158;2022-10-13T15:55:15;69.63;;;37.00;;
20758;SDS011;10539;53.686;9.158;2022-10-13T15:57:41;69.77;;;35.13;;
20758;SDS011;10539;53.686;9.158;2022-10-13T16:00:07;60.03;;;29.43;;
20758;SDS011;10539;53.686;9.158;2022-10-13T16:02:34;53.17;;;27.03;;
20758;SDS011;10539;53.686;9.158;2022-10-13T16:05:00;49.90;;;27.17;;
20758;SDS011;10539;53.686;9.158;2022-10-13T16:07:32;54.57;;;27.40;;
20758;SDS011;10539;53.686;9.158;2022-10-13T16:09:58;50.03;;;26.50;;
20758;SDS011;10539;53.686;9.158;2022-10-13T16:12:24;55.33;;;26.73;;
20758;SDS011;10539;53.686;9.158;2022-10-13T16:14:51;54.60;;;27.63;;
20758;SDS011;10539;53.686;9.158;2022-10-13T16:17:17;52.67;;;27.43;;